Terminal Aerodrome Forecast
Issued by NWS Charleston, WV

Home | Current Version | Previous Version | Text Only | Print | Product List | Glossary On
Versions: 1 2 3 4 5 6 7 8 9 10 11 12 13 14 15
000
FTUS41 KRLX 271500 AAA
TAFPKB
TAF AMD
KPKB 271513Z 2715/2812 18007KT P6SM SKC
     FM280400 23006KT P6SM -RA OVC035
     FM280600 24004KT 4SM -RA BR OVC010
     FM280700 24004KT 2SM -RA BR OVC008=

USA.gov is the U.S. government's official web portal to all federal, state and local government web resources and services.